Time;durP1;ratioP1;P1;durP2;ratioP2;P2;SDS_P1;SDS_P2;PMS_P1;PMS_P2;Temp;Humidity;BMP_temperature;BMP_pressure;BME280_temperature;BME280_humidity;BME280_pressure;Samples;Min_cycle;Max_cycle;Signal;HPM_P1;HPM_P2
2022/12/03 00:01:57;;;;;;;;;;;2.20;99.90;;;;;;4959482;28;19926;-70
2022/12/03 00:04:23;;;;;;;;;;;2.20;99.90;;;;;;4958166;28;19926;-70
2022/12/03 00:06:49;;;;;;;;;;;2.20;99.90;;;;;;4934457;29;19927;-71
2022/12/03 00:09:14;;;;;;;;;;;2.20;99.90;;;;;;4966545;28;19930;-71
2022/12/03 00:11:40;;;;;;;;;;;2.20;99.90;;;;;;4934441;28;19931;-71
2022/12/03 00:14:05;;;;;;;;;;;2.20;99.90;;;;;;4969434;28;19980;-71
2022/12/03 00:16:31;;;;;;;;;;;2.20;99.90;;;;;;4967528;28;19977;-70
2022/12/03 00:18:56;;;;;;;;;;;2.20;99.90;;;;;;4950319;28;19927;-70
2022/12/03 00:21:22;;;;;;;;;;;2.10;99.90;;;;;;4949788;28;19969;-70
2022/12/03 00:23:47;;;;;;;;;;;2.10;99.90;;;;;;4953544;28;20433;-70
2022/12/03 00:26:13;;;;;;;;;;;2.00;99.90;;;;;;4956880;28;19930;-71
2022/12/03 00:28:38;;;;;;;;;;;1.90;99.90;;;;;;4937411;28;19930;-71
2022/12/03 00:31:04;;;;;;;;;;;1.90;99.90;;;;;;4958022;28;19931;-70
2022/12/03 00:33:30;;;;;;;;;;;1.90;99.90;;;;;;4953734;28;20357;-70
2022/12/03 00:35:55;;;;;;;;;;;1.90;99.90;;;;;;4957904;28;19927;-70
2022/12/03 00:38:21;;;;;;;;;;;1.90;99.90;;;;;;4952622;28;20263;-70
2022/12/03 00:40:47;;;;;;;;;;;1.90;99.90;;;;;;4951151;28;19922;-71
2022/12/03 00:43:12;;;;;;;;;;;1.90;99.90;;;;;;4932768;28;19969;-71
2022/12/03 00:45:38;;;;;;;;;;;1.90;99.90;;;;;;4943168;28;19929;-71
2022/12/03 00:48:03;;;;;;;;;;;2.00;99.90;;;;;;4960156;28;20394;-71
2022/12/03 00:50:29;;;;;;;;;;;2.10;99.90;;;;;;4956914;28;19926;-71
2022/12/03 00:52:55;;;;;;;;;;;2.20;99.90;;;;;;4964423;28;20315;-71
2022/12/03 00:55:20;;;;;;;;;;;2.30;99.90;;;;;;4961865;28;19926;-71
2022/12/03 00:57:46;;;;;;;;;;;2.40;99.90;;;;;;4961454;28;19926;-70
2022/12/03 01:00:12;;;;;;;;;;;2.40;99.90;;;;;;4958029;28;20293;-70
2022/12/03 01:02:37;;;;;;;;;;;2.50;99.90;;;;;;4955168;28;19929;-71
2022/12/03 01:05:03;;;;;;;;;;;2.60;99.90;;;;;;4956686;28;20012;-71
2022/12/03 01:07:29;;;;;;;;;;;2.60;99.90;;;;;;4953806;28;20124;-71
2022/12/03 01:09:55;;;;;;;;;;;2.70;99.90;;;;;;4954553;28;19944;-71
2022/12/03 01:12:20;;;;;;;;;;;2.80;99.90;;;;;;4956516;28;19923;-71
2022/12/03 01:14:49;;;;;;;;;;;2.80;99.90;;;;;;4941853;28;19927;-70
2022/12/03 01:17:14;;;;;;;;;;;2.90;99.90;;;;;;4947387;28;19926;-70
2022/12/03 01:19:40;;;;;;;;;;;2.90;99.90;;;;;;4955647;28;20370;-70
2022/12/03 01:22:06;;;;;;;;;;;3.00;99.90;;;;;;4954856;28;19949;-70
2022/12/03 01:24:34;;;;;;;;;;;3.00;99.90;;;;;;4932673;29;19930;-70
2022/12/03 01:27:00;;;;;;;;;;;3.10;99.90;;;;;;4952610;28;20208;-71
2022/12/03 01:29:25;;;;;;;;;;;3.10;99.90;;;;;;4938523;28;20407;-71
2022/12/03 01:34:35;;;;;;;;;;;3.10;99.90;;;;;;4966472;28;20099;-71
2022/12/03 01:37:01;;;;;;;;;;;3.10;99.90;;;;;;4961305;28;20000;-71
2022/12/03 01:39:26;;;;;;;;;;;3.00;99.90;;;;;;4940925;28;19982;-71
2022/12/03 01:41:52;;;;;;;;;;;3.00;99.90;;;;;;4960860;28;19957;-71
2022/12/03 01:44:25;;;;;;;;;;;3.00;99.90;;;;;;4939183;28;20022;-71
2022/12/03 01:46:52;;;;;;;;;;;2.90;99.90;;;;;;4949067;28;19926;-71
2022/12/03 01:49:23;;;;;;;;;;;2.90;99.90;;;;;;4947650;28;19922;-71
2022/12/03 01:51:51;;;;;;;;;;;2.80;99.90;;;;;;4951748;28;19926;-71
2022/12/03 01:54:24;;;;;;;;;;;2.80;99.90;;;;;;4950693;28;19973;-71
2022/12/03 01:56:49;;;;;;;;;;;2.80;99.90;;;;;;4945512;28;19922;-71
2022/12/03 01:59:16;;;;;;;;;;;2.80;99.90;;;;;;4958516;28;19944;-71
2022/12/03 02:01:42;;;;;;;;;;;2.70;99.90;;;;;;4958151;28;19949;-71
2022/12/03 02:04:12;;;;;;;;;;;2.80;99.90;;;;;;4954239;28;19931;-71
2022/12/03 02:06:37;;;;;;;;;;;2.80;99.90;;;;;;4940602;28;19930;-71
2022/12/03 02:09:07;;;;;;;;;;;2.70;99.90;;;;;;4960427;28;19922;-71
2022/12/03 02:11:34;;;;;;;;;;;2.70;99.90;;;;;;4946519;28;20367;-71
2022/12/03 02:14:02;;;;;;;;;;;2.70;99.90;;;;;;4940053;28;20036;-71
2022/12/03 02:16:27;;;;;;;;;;;2.70;99.90;;;;;;4943449;28;19956;-71
2022/12/03 02:18:53;;;;;;;;;;;2.80;99.90;;;;;;4944123;28;20446;-71
2022/12/03 02:21:19;;;;;;;;;;;2.80;99.90;;;;;;4951926;28;20429;-70
2022/12/03 02:23:56;;;;;;;;;;;2.80;99.90;;;;;;4956853;28;19927;-70
2022/12/03 02:26:21;;;;;;;;;;;2.80;99.90;;;;;;4952862;28;19926;-70
2022/12/03 02:28:47;;;;;;;;;;;2.80;99.90;;;;;;4959968;28;19933;-70
2022/12/03 02:31:13;;;;;;;;;;;2.90;99.90;;;;;;4951311;28;20009;-70
2022/12/03 02:33:38;;;;;;;;;;;2.90;99.90;;;;;;4959849;28;19976;-71
2022/12/03 02:36:04;;;;;;;;;;;2.90;99.90;;;;;;4956691;28;19930;-71
2022/12/03 02:38:31;;;;;;;;;;;2.90;99.90;;;;;;4960695;28;19930;-70
2022/12/03 02:40:58;;;;;;;;;;;3.00;99.90;;;;;;4956892;28;19933;-70
2022/12/03 02:43:24;;;;;;;;;;;2.90;99.90;;;;;;4959993;28;19926;-70
2022/12/03 02:45:52;;;;;;;;;;;3.00;99.90;;;;;;4938756;28;19930;-70
2022/12/03 02:48:37;;;;;;;;;;;3.00;99.90;;;;;;4947286;28;20727;-70
2022/12/03 02:51:05;;;;;;;;;;;3.00;99.90;;;;;;4953089;28;19945;-70
2022/12/03 02:53:36;;;;;;;;;;;3.00;99.90;;;;;;4958855;28;20219;-70
2022/12/03 02:56:02;;;;;;;;;;;3.10;99.90;;;;;;4955429;28;19926;-70
2022/12/03 02:58:29;;;;;;;;;;;3.00;99.90;;;;;;4959161;28;20382;-70
2022/12/03 03:00:55;;;;;;;;;;;3.00;99.90;;;;;;4958757;28;20370;-70
2022/12/03 03:03:22;;;;;;;;;;;2.90;99.90;;;;;;4956219;28;19977;-70
2022/12/03 03:05:48;;;;;;;;;;;2.80;99.90;;;;;;4953648;28;19927;-70
2022/12/03 03:08:14;;;;;;;;;;;2.80;99.90;;;;;;4932903;28;19930;-70
2022/12/03 03:10:41;;;;;;;;;;;2.80;99.90;;;;;;4948984;28;19927;-70
2022/12/03 03:13:08;;;;;;;;;;;2.80;99.90;;;;;;4955895;28;19926;-70
2022/12/03 03:15:35;;;;;;;;;;;2.70;99.90;;;;;;4965393;28;19922;-70
2022/12/03 03:18:00;;;;;;;;;;;2.80;99.90;;;;;;4948936;28;19937;-70
2022/12/03 03:20:26;;;;;;;;;;;2.80;99.90;;;;;;4950695;28;20378;-70
2022/12/03 03:22:51;;;;;;;;;;;2.80;99.90;;;;;;4957847;28;19947;-70
2022/12/03 03:25:19;;;;;;;;;;;2.90;99.90;;;;;;4940008;28;20013;-70
2022/12/03 03:27:45;;;;;;;;;;;2.80;99.90;;;;;;4950967;28;19933;-70
2022/12/03 03:30:12;;;;;;;;;;;2.80;99.90;;;;;;4974917;28;19925;-70
2022/12/03 03:32:38;;;;;;;;;;;2.80;99.90;;;;;;4965431;28;19929;-70
2022/12/03 03:35:04;;;;;;;;;;;2.80;99.90;;;;;;4962052;28;19981;-70
2022/12/03 03:37:30;;;;;;;;;;;2.90;99.90;;;;;;4960874;28;19988;-70
2022/12/03 03:39:55;;;;;;;;;;;2.90;99.90;;;;;;4950326;28;19957;-70
2022/12/03 03:42:21;;;;;;;;;;;2.80;99.90;;;;;;4957578;28;19922;-70
2022/12/03 03:44:47;;;;;;;;;;;2.80;99.90;;;;;;4953714;28;19926;-70
2022/12/03 03:47:12;;;;;;;;;;;2.80;99.90;;;;;;4952650;28;19934;-70
2022/12/03 03:49:38;;;;;;;;;;;2.80;99.90;;;;;;4966321;28;19929;-70
2022/12/03 03:52:04;;;;;;;;;;;2.80;99.90;;;;;;4956796;28;20013;-70
2022/12/03 03:54:30;;;;;;;;;;;2.80;99.90;;;;;;4943190;28;19931;-71
2022/12/03 03:56:56;;;;;;;;;;;2.90;99.90;;;;;;4948507;28;20403;-71
2022/12/03 03:59:21;;;;;;;;;;;2.90;99.90;;;;;;4966670;28;19922;-71
2022/12/03 04:01:47;;;;;;;;;;;3.00;99.90;;;;;;4956675;28;19927;-70
2022/12/03 04:04:18;;;;;;;;;;;3.00;99.90;;;;;;4958693;28;19922;-70
2022/12/03 04:06:44;;;;;;;;;;;3.00;99.90;;;;;;4957467;28;20505;-70
2022/12/03 04:09:10;;;;;;;;;;;3.10;99.90;;;;;;4946276;28;19930;-70
2022/12/03 04:14:19;;;;;;;;;;;3.10;99.90;;;;;;4948965;28;19926;-70
2022/12/03 04:16:45;;;;;;;;;;;3.10;99.90;;;;;;4939530;28;20284;-71
2022/12/03 04:19:10;;;;;;;;;;;3.20;99.90;;;;;;4959716;28;19926;-71
2022/12/03 04:24:20;;;;;;;;;;;3.20;99.90;;;;;;4957176;28;20450;-71
2022/12/03 04:29:30;;;;;;;;;;;3.20;99.90;;;;;;4954886;28;20306;-71
2022/12/03 04:37:24;;;;;;;;;;;3.20;99.90;;;;;;4954878;28;19922;-71
2022/12/03 04:39:50;;;;;;;;;;;3.20;99.90;;;;;;4929594;28;20292;-71
2022/12/03 04:42:16;;;;;;;;;;;3.20;99.90;;;;;;4937136;28;19922;-70
2022/12/03 04:44:41;;;;;;;;;;;3.20;99.90;;;;;;4957265;28;19933;-70
2022/12/03 04:47:15;;;;;;;;;;;3.10;99.90;;;;;;4964844;28;19950;-70
2022/12/03 04:49:41;;;;;;;;;;;3.20;99.90;;;;;;4955545;28;20707;-70
2022/12/03 04:52:08;;;;;;;;;;;3.20;99.90;;;;;;4962292;28;20394;-70
2022/12/03 04:54:33;;;;;;;;;;;3.10;99.90;;;;;;4942680;28;19923;-70
2022/12/03 04:56:59;;;;;;;;;;;3.10;99.90;;;;;;4955010;28;19926;-70
2022/12/03 04:59:24;;;;;;;;;;;3.10;99.90;;;;;;4959378;28;20135;-70
2022/12/03 05:01:50;;;;;;;;;;;3.00;99.90;;;;;;4942635;28;19931;-70
2022/12/03 05:04:16;;;;;;;;;;;3.00;99.90;;;;;;4949724;28;19929;-70
2022/12/03 05:06:41;;;;;;;;;;;3.00;99.90;;;;;;4950828;28;19938;-70
2022/12/03 05:09:07;;;;;;;;;;;3.00;99.90;;;;;;4952226;28;19933;-70
2022/12/03 05:11:33;;;;;;;;;;;3.00;99.90;;;;;;4961847;28;19926;-70
2022/12/03 05:13:58;;;;;;;;;;;3.00;99.90;;;;;;4948226;28;19926;-70
2022/12/03 05:16:24;;;;;;;;;;;3.00;99.90;;;;;;4960937;28;20432;-70
2022/12/03 05:18:49;;;;;;;;;;;3.00;99.90;;;;;;4971367;28;19936;-70
2022/12/03 05:21:15;;;;;;;;;;;3.00;99.90;;;;;;4962848;28;19976;-70
2022/12/03 05:23:41;;;;;;;;;;;3.00;99.90;;;;;;4961524;28;20263;-70
2022/12/03 05:26:06;;;;;;;;;;;3.00;99.90;;;;;;4939417;28;19934;-70
2022/12/03 05:28:32;;;;;;;;;;;3.00;99.90;;;;;;4954348;28;19922;-71
2022/12/03 05:30:58;;;;;;;;;;;3.00;99.90;;;;;;4956105;28;19933;-71
2022/12/03 05:33:23;;;;;;;;;;;3.00;99.90;;;;;;4959119;28;20459;-70
2022/12/03 05:35:49;;;;;;;;;;;3.00;99.90;;;;;;4964901;28;20294;-70
2022/12/03 05:38:14;;;;;;;;;;;3.00;99.90;;;;;;4953795;28;20054;-70
2022/12/03 05:40:40;;;;;;;;;;;3.00;99.90;;;;;;4949904;28;19930;-70
2022/12/03 05:43:05;;;;;;;;;;;3.10;99.90;;;;;;4966446;28;20013;-70
2022/12/03 05:45:35;;;;;;;;;;;3.00;99.90;;;;;;4961367;28;19969;-70
2022/12/03 05:48:01;;;;;;;;;;;3.00;99.90;;;;;;4951143;28;19942;-70
2022/12/03 05:50:28;;;;;;;;;;;3.10;99.90;;;;;;4960403;28;19922;-70
2022/12/03 05:52:54;;;;;;;;;;;3.00;99.90;;;;;;4955785;28;19937;-70
2022/12/03 05:55:20;;;;;;;;;;;3.00;99.90;;;;;;4953322;28;20422;-70
2022/12/03 05:57:45;;;;;;;;;;;3.00;99.90;;;;;;4951659;28;19922;-71
2022/12/03 06:00:16;;;;;;;;;;;3.00;99.90;;;;;;4952176;28;19982;-70
2022/12/03 06:02:42;;;;;;;;;;;3.00;99.90;;;;;;4947605;28;20848;-70
2022/12/03 06:05:08;;;;;;;;;;;3.00;99.90;;;;;;4950746;28;19965;-70
2022/12/03 06:07:33;;;;;;;;;;;2.90;99.90;;;;;;4951067;28;19965;-70
2022/12/03 06:09:59;;;;;;;;;;;2.90;99.90;;;;;;4960719;28;19980;-70
2022/12/03 06:12:24;;;;;;;;;;;2.90;99.90;;;;;;4955922;28;19930;-70
2022/12/03 06:14:51;;;;;;;;;;;2.90;99.90;;;;;;4949807;28;20319;-70
2022/12/03 06:17:17;;;;;;;;;;;2.90;99.90;;;;;;4956831;28;19931;-70
2022/12/03 06:19:42;;;;;;;;;;;2.90;99.90;;;;;;4955848;28;19927;-70
2022/12/03 06:22:08;;;;;;;;;;;2.90;99.90;;;;;;4952653;28;19977;-70
2022/12/03 06:24:33;;;;;;;;;;;2.90;99.90;;;;;;4949555;28;19923;-70
2022/12/03 06:26:59;;;;;;;;;;;2.90;99.90;;;;;;4956308;28;19948;-70
2022/12/03 06:29:24;;;;;;;;;;;2.90;99.90;;;;;;4962418;28;19993;-70
2022/12/03 06:31:50;;;;;;;;;;;2.90;99.90;;;;;;4946883;28;19933;-70
2022/12/03 06:34:15;;;;;;;;;;;2.90;99.90;;;;;;4945952;28;19975;-71
2022/12/03 06:36:41;;;;;;;;;;;2.90;99.90;;;;;;4944559;28;19927;-71
2022/12/03 06:39:07;;;;;;;;;;;3.00;99.90;;;;;;4947802;28;19926;-71
2022/12/03 06:41:32;;;;;;;;;;;2.90;99.90;;;;;;4958866;28;19926;-71
2022/12/03 06:43:58;;;;;;;;;;;2.90;99.90;;;;;;4965643;28;20418;-70
2022/12/03 06:46:23;;;;;;;;;;;3.00;99.90;;;;;;4944866;28;20084;-70
2022/12/03 06:48:49;;;;;;;;;;;2.90;99.90;;;;;;4962053;28;19946;-70
2022/12/03 06:51:14;;;;;;;;;;;2.90;99.90;;;;;;4956722;28;19933;-70
2022/12/03 06:53:40;;;;;;;;;;;3.00;99.90;;;;;;4951962;28;19934;-70
2022/12/03 06:56:06;;;;;;;;;;;3.00;99.90;;;;;;4963807;28;19929;-70
2022/12/03 06:58:31;;;;;;;;;;;3.00;99.90;;;;;;4975798;28;20573;-70
2022/12/03 07:00:57;;;;;;;;;;;3.00;99.90;;;;;;4943027;28;20427;-71
2022/12/03 07:03:22;;;;;;;;;;;2.90;99.90;;;;;;4946992;28;19927;-71
2022/12/03 07:05:48;;;;;;;;;;;2.90;99.90;;;;;;4950240;28;20414;-71
2022/12/03 07:08:13;;;;;;;;;;;2.90;99.90;;;;;;4946636;28;19937;-71
2022/12/03 07:10:39;;;;;;;;;;;2.80;99.90;;;;;;4962531;28;19965;-71
2022/12/03 07:13:04;;;;;;;;;;;2.80;99.90;;;;;;4946251;28;19922;-71
2022/12/03 07:15:30;;;;;;;;;;;2.80;99.90;;;;;;4958551;28;20008;-71
2022/12/03 07:17:56;;;;;;;;;;;2.80;99.90;;;;;;4949386;28;19926;-71
2022/12/03 07:20:21;;;;;;;;;;;2.80;99.90;;;;;;4960753;28;20001;-70
2022/12/03 07:22:47;;;;;;;;;;;2.80;99.90;;;;;;4937127;28;19934;-70
2022/12/03 07:25:13;;;;;;;;;;;2.80;99.90;;;;;;4954457;28;19926;-70
2022/12/03 07:27:38;;;;;;;;;;;2.80;99.90;;;;;;4961845;28;19954;-70
2022/12/03 07:30:05;;;;;;;;;;;2.80;99.90;;;;;;4960551;28;20610;-70
2022/12/03 07:32:30;;;;;;;;;;;2.70;99.90;;;;;;4954319;28;19933;-70
2022/12/03 07:34:56;;;;;;;;;;;2.70;99.90;;;;;;4960090;28;20370;-70
2022/12/03 07:37:21;;;;;;;;;;;2.80;99.90;;;;;;4961819;28;20279;-70
2022/12/03 07:39:47;;;;;;;;;;;2.70;99.90;;;;;;4936355;28;20009;-70
2022/12/03 07:42:12;;;;;;;;;;;2.80;99.90;;;;;;4956635;28;19926;-70
2022/12/03 07:44:38;;;;;;;;;;;2.80;99.90;;;;;;4970415;28;20355;-70
2022/12/03 07:47:04;;;;;;;;;;;2.70;99.90;;;;;;4950334;28;19930;-70
2022/12/03 07:49:29;;;;;;;;;;;2.70;99.90;;;;;;4953400;28;19930;-70
2022/12/03 07:51:56;;;;;;;;;;;2.70;99.90;;;;;;4961255;28;19934;-70
2022/12/03 07:54:24;;;;;;;;;;;2.70;99.90;;;;;;4945724;28;19934;-71
2022/12/03 07:56:50;;;;;;;;;;;2.70;99.90;;;;;;4962479;28;19933;-70
2022/12/03 07:59:16;;;;;;;;;;;2.70;99.90;;;;;;4963051;28;19922;-70
2022/12/03 08:01:42;;;;;;;;;;;2.60;99.90;;;;;;4961039;28;20413;-70
2022/12/03 08:04:07;;;;;;;;;;;2.60;99.90;;;;;;4937149;28;20029;-70
2022/12/03 08:06:33;;;;;;;;;;;2.60;99.90;;;;;;4956164;28;20430;-70
2022/12/03 08:08:59;;;;;;;;;;;2.60;99.90;;;;;;4961177;28;19922;-70
2022/12/03 08:11:27;;;;;;;;;;;2.60;99.90;;;;;;4957005;28;20291;-70
2022/12/03 08:13:52;;;;;;;;;;;2.60;99.90;;;;;;4960314;28;19988;-70
2022/12/03 08:16:20;;;;;;;;;;;2.60;99.90;;;;;;4946165;28;19930;-70
2022/12/03 08:18:46;;;;;;;;;;;2.60;99.90;;;;;;4954385;28;19922;-73
2022/12/03 08:21:12;;;;;;;;;;;2.60;99.90;;;;;;4962899;28;19926;-73
2022/12/03 08:23:38;;;;;;;;;;;2.70;99.90;;;;;;4964056;28;19928;-73
2022/12/03 08:26:13;;;;;;;;;;;2.70;99.90;;;;;;4962331;28;19930;-72
2022/12/03 08:28:39;;;;;;;;;;;2.70;99.90;;;;;;4944896;28;19926;-73
2022/12/03 08:31:19;;;;;;;;;;;2.70;99.90;;;;;;4959862;28;20407;-73
2022/12/03 08:33:47;;;;;;;;;;;2.60;99.90;;;;;;4941842;28;19926;-72
2022/12/03 08:36:15;;;;;;;;;;;2.60;99.90;;;;;;4959903;28;19926;-72
2022/12/03 08:38:45;;;;;;;;;;;2.70;99.90;;;;;;4963688;28;20035;-72
2022/12/03 08:41:13;;;;;;;;;;;2.60;99.90;;;;;;4962153;28;20009;-73
2022/12/03 08:43:41;;;;;;;;;;;2.60;99.90;;;;;;4958050;28;19973;-73
2022/12/03 08:46:11;;;;;;;;;;;2.60;99.90;;;;;;4946251;28;19941;-73
2022/12/03 08:48:37;;;;;;;;;;;2.60;99.90;;;;;;4929324;28;19922;-72
2022/12/03 08:51:24;;;;;;;;;;;2.70;99.90;;;;;;4971045;28;20009;-73
2022/12/03 08:53:57;;;;;;;;;;;2.80;99.90;;;;;;4951589;28;19930;-72
2022/12/03 08:56:24;;;;;;;;;;;2.70;99.90;;;;;;4943910;28;19923;-73
2022/12/03 08:59:08;;;;;;;;;;;2.60;99.90;;;;;;4964020;28;20418;-72
2022/12/03 09:01:38;;;;;;;;;;;2.60;99.90;;;;;;4947845;28;20426;-73
2022/12/03 09:04:14;;;;;;;;;;;2.60;99.90;;;;;;4952498;28;19929;-72
2022/12/03 09:06:39;;;;;;;;;;;2.70;99.90;;;;;;4952680;28;19927;-73
2022/12/03 09:09:05;;;;;;;;;;;2.60;99.90;;;;;;4960302;28;19985;-73
2022/12/03 09:11:31;;;;;;;;;;;2.60;99.90;;;;;;4958667;28;19923;-73
2022/12/03 09:13:56;;;;;;;;;;;2.70;99.90;;;;;;4946340;28;19922;-73
2022/12/03 09:16:22;;;;;;;;;;;2.70;99.90;;;;;;4955019;28;19977;-73
2022/12/03 09:18:48;;;;;;;;;;;2.70;99.90;;;;;;4961940;28;19933;-73
2022/12/03 09:21:17;;;;;;;;;;;2.60;99.90;;;;;;4955511;28;19922;-73
2022/12/03 09:23:43;;;;;;;;;;;2.60;99.90;;;;;;4958146;28;20302;-73
2022/12/03 09:26:09;;;;;;;;;;;2.70;99.90;;;;;;4948871;28;19930;-73
2022/12/03 09:28:35;;;;;;;;;;;2.70;99.90;;;;;;4939304;28;19930;-73
2022/12/03 09:31:00;;;;;;;;;;;2.70;99.90;;;;;;4957843;28;19927;-72
2022/12/03 09:33:26;;;;;;;;;;;2.70;99.90;;;;;;4962545;28;20374;-73
2022/12/03 09:35:51;;;;;;;;;;;2.70;99.90;;;;;;4943904;28;19930;-73
2022/12/03 09:38:17;;;;;;;;;;;2.70;99.90;;;;;;4947969;28;19923;-73
2022/12/03 09:40:43;;;;;;;;;;;2.70;99.90;;;;;;4955765;28;19973;-70
2022/12/03 09:43:09;;;;;;;;;;;2.70;99.90;;;;;;4955575;28;19930;-70
2022/12/03 09:45:35;;;;;;;;;;;2.60;99.90;;;;;;4940399;28;19933;-70
2022/12/03 09:48:02;;;;;;;;;;;2.60;99.90;;;;;;4951633;28;19927;-70
2022/12/03 09:50:29;;;;;;;;;;;2.70;99.90;;;;;;4946230;28;19926;-70
2022/12/03 09:52:56;;;;;;;;;;;2.70;99.90;;;;;;4952740;28;19990;-70
2022/12/03 09:55:23;;;;;;;;;;;2.70;99.90;;;;;;4958858;28;19922;-70
2022/12/03 09:57:50;;;;;;;;;;;2.70;99.90;;;;;;4961043;28;20390;-70
2022/12/03 10:00:20;;;;;;;;;;;2.80;99.90;;;;;;4944055;28;19929;-71
2022/12/03 10:02:46;;;;;;;;;;;2.70;99.90;;;;;;4959140;28;19923;-71
2022/12/03 10:05:12;;;;;;;;;;;2.70;99.90;;;;;;4955647;28;20318;-71
2022/12/03 10:07:38;;;;;;;;;;;2.70;99.90;;;;;;4959721;28;19933;-70
2022/12/03 10:10:05;;;;;;;;;;;2.70;99.90;;;;;;4958470;28;20029;-70
2022/12/03 10:12:31;;;;;;;;;;;2.70;99.90;;;;;;4945972;28;19977;-70
2022/12/03 10:14:56;;;;;;;;;;;2.70;99.90;;;;;;4955366;28;19934;-70
2022/12/03 10:17:22;;;;;;;;;;;2.70;99.90;;;;;;4956131;28;19922;-70
2022/12/03 10:19:48;;;;;;;;;;;2.70;99.90;;;;;;4939164;28;19922;-70
2022/12/03 10:22:13;;;;;;;;;;;2.70;99.90;;;;;;4937931;28;19926;-70
2022/12/03 10:24:39;;;;;;;;;;;2.70;99.90;;;;;;4964209;28;20438;-70
2022/12/03 10:27:23;;;;;;;;;;;2.80;99.90;;;;;;4940402;28;20363;-71
2022/12/03 10:29:52;;;;;;;;;;;2.80;99.90;;;;;;4945132;28;19922;-71
2022/12/03 10:32:23;;;;;;;;;;;2.80;99.90;;;;;;4942721;28;20409;-70
2022/12/03 10:34:48;;;;;;;;;;;2.80;99.90;;;;;;4944509;28;19922;-70
2022/12/03 10:37:14;;;;;;;;;;;2.80;99.90;;;;;;4960744;28;20405;-70
2022/12/03 10:39:49;;;;;;;;;;;2.80;99.90;;;;;;4957401;28;20331;-70
2022/12/03 10:42:15;;;;;;;;;;;2.90;99.90;;;;;;4960545;28;20358;-70
2022/12/03 10:44:40;;;;;;;;;;;2.90;99.90;;;;;;4944882;28;19929;-70
2022/12/03 10:47:08;;;;;;;;;;;2.90;99.90;;;;;;4925317;28;19926;-70
2022/12/03 10:49:34;;;;;;;;;;;2.90;99.90;;;;;;4952661;28;20665;-70
2022/12/03 10:52:00;;;;;;;;;;;2.90;99.90;;;;;;4954471;28;19922;-70
2022/12/03 10:54:27;;;;;;;;;;;2.90;99.90;;;;;;4942366;28;19996;-70
2022/12/03 10:56:53;;;;;;;;;;;2.90;99.90;;;;;;4942122;28;19974;-70
2022/12/03 10:59:20;;;;;;;;;;;2.90;99.90;;;;;;4937745;28;19922;-70
2022/12/03 11:01:46;;;;;;;;;;;2.90;99.90;;;;;;4964872;28;19950;-70
2022/12/03 11:04:18;;;;;;;;;;;2.90;99.90;;;;;;4943370;28;19926;-70
2022/12/03 11:06:51;;;;;;;;;;;2.90;99.90;;;;;;4947257;28;19926;-72
2022/12/03 11:09:18;;;;;;;;;;;2.80;99.90;;;;;;4966328;28;19965;-73
2022/12/03 11:11:44;;;;;;;;;;;2.80;99.90;;;;;;4941877;28;20387;-73
2022/12/03 11:14:09;;;;;;;;;;;2.80;99.90;;;;;;4943796;28;19933;-72
2022/12/03 11:16:38;;;;;;;;;;;2.70;99.90;;;;;;4946789;28;20166;-73
2022/12/03 11:19:04;;;;;;;;;;;2.70;99.90;;;;;;4969396;28;19970;-73
2022/12/03 11:21:30;;;;;;;;;;;2.60;99.90;;;;;;4955236;28;19926;-72
2022/12/03 11:23:58;;;;;;;;;;;2.60;99.90;;;;;;4939673;28;19985;-72
2022/12/03 11:26:27;;;;;;;;;;;2.60;99.90;;;;;;4960463;28;20013;-72
2022/12/03 11:28:57;;;;;;;;;;;2.60;99.90;;;;;;4945662;28;19977;-72
2022/12/03 11:31:34;;;;;;;;;;;2.70;99.90;;;;;;4942997;28;19998;-71
2022/12/03 11:34:20;;;;;;;;;;;2.70;99.90;;;;;;4956792;28;19929;-73
2022/12/03 11:37:04;;;;;;;;;;;2.70;99.90;;;;;;4957129;28;19973;-72
2022/12/03 11:39:48;;;;;;;;;;;2.70;99.90;;;;;;4953859;28;20001;-72
2022/12/03 11:42:26;;;;;;;;;;;2.70;99.90;;;;;;4973723;28;19930;-72
2022/12/03 11:45:10;;;;;;;;;;;2.70;99.90;;;;;;4946384;28;19949;-72
2022/12/03 11:47:43;;;;;;;;;;;2.70;99.90;;;;;;4937255;28;19949;-72
2022/12/03 11:50:22;;;;;;;;;;;2.70;99.90;;;;;;4978746;28;20398;-72
2022/12/03 11:52:51;;;;;;;;;;;2.80;99.90;;;;;;4948359;28;19969;-72
2022/12/03 11:55:27;;;;;;;;;;;2.70;99.90;;;;;;4948075;28;20378;-71
2022/12/03 11:57:57;;;;;;;;;;;2.70;99.90;;;;;;4967548;28;20470;-72
2022/12/03 12:00:23;;;;;;;;;;;2.70;99.90;;;;;;4946662;28;19926;-72
2022/12/03 12:02:49;;;;;;;;;;;2.70;99.90;;;;;;4955851;28;19927;-73
2022/12/03 12:05:19;;;;;;;;;;;2.60;99.90;;;;;;4960788;28;20004;-72
2022/12/03 12:07:46;;;;;;;;;;;2.60;99.90;;;;;;4962797;28;19980;-73
2022/12/03 12:10:36;;;;;;;;;;;2.60;99.90;;;;;;4963579;28;20408;-73
2022/12/03 12:13:02;;;;;;;;;;;2.60;99.90;;;;;;4961676;28;19977;-73
2022/12/03 12:15:42;;;;;;;;;;;2.60;99.90;;;;;;4941860;28;19930;-73
2022/12/03 12:18:26;;;;;;;;;;;2.50;99.90;;;;;;4961073;28;19934;-72
2022/12/03 12:20:52;;;;;;;;;;;2.50;99.90;;;;;;4970526;28;19926;-72
2022/12/03 12:23:27;;;;;;;;;;;2.50;99.90;;;;;;4959681;28;19989;-73
2022/12/03 12:26:04;;;;;;;;;;;2.50;99.90;;;;;;4961152;28;20053;-72
2022/12/03 12:28:29;;;;;;;;;;;2.50;99.90;;;;;;4961972;28;19930;-72
2022/12/03 12:30:55;;;;;;;;;;;2.50;99.90;;;;;;4951139;28;19928;-72
2022/12/03 12:33:22;;;;;;;;;;;2.50;99.90;;;;;;4945676;28;19926;-72
2022/12/03 12:35:48;;;;;;;;;;;2.50;99.90;;;;;;4945687;28;19937;-72
2022/12/03 12:38:15;;;;;;;;;;;2.60;99.90;;;;;;4957681;28;19922;-72
2022/12/03 12:40:43;;;;;;;;;;;2.60;99.90;;;;;;4940671;29;19930;-72
2022/12/03 12:43:09;;;;;;;;;;;2.50;99.90;;;;;;4954666;28;19926;-72
2022/12/03 12:45:35;;;;;;;;;;;2.50;99.90;;;;;;4957781;28;19933;-72
2022/12/03 12:48:09;;;;;;;;;;;2.60;99.90;;;;;;4943827;28;19934;-73
2022/12/03 12:50:35;;;;;;;;;;;2.60;99.90;;;;;;4937901;28;19929;-72
2022/12/03 12:53:05;;;;;;;;;;;2.50;99.90;;;;;;4939326;28;19937;-72
2022/12/03 12:55:31;;;;;;;;;;;2.50;99.90;;;;;;4958425;28;20378;-73
2022/12/03 12:58:01;;;;;;;;;;;2.50;99.90;;;;;;4956013;28;20045;-72
2022/12/03 13:00:26;;;;;;;;;;;2.50;99.90;;;;;;4940924;28;19938;-73
2022/12/03 13:02:59;;;;;;;;;;;2.50;99.90;;;;;;4931199;28;19930;-72
2022/12/03 13:05:26;;;;;;;;;;;2.50;99.90;;;;;;4939564;28;19945;-72
2022/12/03 13:07:53;;;;;;;;;;;2.50;99.90;;;;;;4941010;28;19926;-72
2022/12/03 13:10:19;;;;;;;;;;;2.50;99.90;;;;;;4940027;28;20442;-72
2022/12/03 13:12:44;;;;;;;;;;;2.40;99.90;;;;;;4959719;28;19948;-73
2022/12/03 13:15:29;;;;;;;;;;;2.40;99.90;;;;;;4947578;28;20457;-72
2022/12/03 13:17:55;;;;;;;;;;;2.40;99.90;;;;;;4954987;28;19978;-72
2022/12/03 13:20:21;;;;;;;;;;;2.40;99.90;;;;;;4955317;28;19926;-72
2022/12/03 13:22:46;;;;;;;;;;;2.40;99.90;;;;;;4940778;28;20350;-72
2022/12/03 13:25:31;;;;;;;;;;;2.40;99.90;;;;;;4940576;28;20478;-71
2022/12/03 13:27:56;;;;;;;;;;;2.30;99.90;;;;;;4959548;28;20013;-72
2022/12/03 13:30:22;;;;;;;;;;;2.40;99.90;;;;;;4939490;28;20013;-72
2022/12/03 13:32:47;;;;;;;;;;;2.30;99.90;;;;;;4961702;28;19937;-72
2022/12/03 13:35:34;;;;;;;;;;;2.30;99.90;;;;;;4944725;28;19926;-72
2022/12/03 13:38:01;;;;;;;;;;;2.30;99.90;;;;;;4959303;28;20191;-72
2022/12/03 13:40:29;;;;;;;;;;;2.20;99.90;;;;;;4941968;28;19973;-73
2022/12/03 13:42:55;;;;;;;;;;;2.20;99.90;;;;;;4954198;28;19922;-73
2022/12/03 13:45:23;;;;;;;;;;;2.20;99.90;;;;;;4940284;28;20306;-73
2022/12/03 13:47:56;;;;;;;;;;;2.10;99.90;;;;;;4955059;28;19927;-73
2022/12/03 13:50:37;;;;;;;;;;;2.10;99.90;;;;;;4941090;28;20026;-72
2022/12/03 13:53:21;;;;;;;;;;;2.10;99.90;;;;;;4956751;28;19932;-72
2022/12/03 13:56:07;;;;;;;;;;;2.10;99.90;;;;;;4939507;28;19929;-72
2022/12/03 13:58:33;;;;;;;;;;;2.00;99.90;;;;;;4924833;28;20394;-72
2022/12/03 14:00:58;;;;;;;;;;;2.00;99.90;;;;;;4969700;28;19925;-72
2022/12/03 14:03:24;;;;;;;;;;;2.00;99.90;;;;;;4955837;28;20442;-73
2022/12/03 14:05:50;;;;;;;;;;;2.00;99.90;;;;;;4951045;28;19932;-72
2022/12/03 14:08:16;;;;;;;;;;;1.90;99.90;;;;;;4942351;28;19926;-73
2022/12/03 14:10:45;;;;;;;;;;;1.90;99.90;;;;;;4957957;28;19933;-73
2022/12/03 14:13:10;;;;;;;;;;;1.80;99.90;;;;;;4941139;28;20381;-72
2022/12/03 14:15:36;;;;;;;;;;;1.90;99.90;;;;;;4948520;28;20366;-73
2022/12/03 14:18:02;;;;;;;;;;;1.90;99.90;;;;;;4941831;28;19922;-73
2022/12/03 14:20:28;;;;;;;;;;;1.90;99.90;;;;;;4957949;28;19949;-72
2022/12/03 14:22:53;;;;;;;;;;;1.80;99.90;;;;;;4948656;28;19929;-74
2022/12/03 14:25:19;;;;;;;;;;;1.80;99.90;;;;;;4928541;29;20455;-72
2022/12/03 14:27:44;;;;;;;;;;;1.80;99.90;;;;;;4954156;28;19936;-73
2022/12/03 14:30:10;;;;;;;;;;;1.80;99.90;;;;;;4932128;28;19930;-72
2022/12/03 14:32:36;;;;;;;;;;;1.80;99.90;;;;;;4942949;28;19926;-72
2022/12/03 14:35:01;;;;;;;;;;;1.70;99.90;;;;;;4957983;28;19926;-72
2022/12/03 14:37:27;;;;;;;;;;;1.80;99.90;;;;;;4941965;28;20491;-70
2022/12/03 14:39:53;;;;;;;;;;;1.70;99.90;;;;;;4958786;28;20461;-70
2022/12/03 14:42:18;;;;;;;;;;;1.70;99.90;;;;;;4946706;28;19923;-70
2022/12/03 14:44:48;;;;;;;;;;;1.70;99.90;;;;;;4959762;28;19926;-70
2022/12/03 14:47:15;;;;;;;;;;;1.70;99.90;;;;;;4947472;28;19927;-70
2022/12/03 14:49:41;;;;;;;;;;;1.70;99.90;;;;;;4944379;28;20020;-71